»·PEaware :: SKY43 KDLS-KMMV

SKY43 :: KDLS-KMMV

FLIGHT INFORMATION

Flight Status: Arrived
Operator:
Sky High Charters
More flights by this operator :: More flights under this callsign
Pilot: Justin C. (30559)
Aircraft: BEECH AIRCRAFT A90-E90 KING AIR
(BE9L)
More flights by this aircraft type
Origin: KDLS Columbia Gorge Regl/The Dalle
United States
Destination: KMMV McMinnville Mun
United States
More flights between these airports :: More routes between these airports
Route: DALLS1 LTJ V112 BTG V287 UBG
File this flight plan on PilotEdge
Remarks:
Altitude:
(Current/Filed)
8,000ft
Speed:
(Current/Filed)
180kts
Departed: 07-Aug-20 08:13 AM
Arrived: 07-Aug-20 08:59 AM
Distance/Time
Traveled:
87nm/0:46
Distance/Time
To Go:
Arrived

Flight Plot

Page will automatically refresh every two minutes.

Flight plan parsing failed; only flown route is shown


Map Options




Map Legend


Flown Route
Filed Route
Departure Airport
Arrival Airport
Navaid (VOR, NDB)
Fix

Horizontal Profiles

Position Reports

Time Latitude Longitude Heading Altitude Ground
Speed
07-Aug-20 07:50 45.618355 -121.172022 327 219ft 0kts
07-Aug-20 07:51 45.618355 -121.172022 327 219ft 0kts
07-Aug-20 07:52 45.618355 -121.172022 327 219ft 0kts
07-Aug-20 07:53 45.618355 -121.172022 327 219ft 0kts
07-Aug-20 07:54 45.618355 -121.172022 327 219ft 0kts
07-Aug-20 07:55 45.618355 -121.172022 327 219ft 0kts
07-Aug-20 07:56 45.618355 -121.172022 327 219ft 0kts
07-Aug-20 07:57 45.618355 -121.172022 327 219ft 0kts
07-Aug-20 07:58 45.618355 -121.172022 327 219ft 0kts
07-Aug-20 07:59 45.618355 -121.172022 327 219ft 0kts
07-Aug-20 08:00 45.618355 -121.172022 327 219ft 0kts
07-Aug-20 08:01 45.618355 -121.172022 327 219ft 0kts
07-Aug-20 08:02 45.618364 -121.172029 331 219ft 0kts
07-Aug-20 08:03 45.618797 -121.171407 336 219ft 0kts
07-Aug-20 08:04 45.618809 -121.171462 263 219ft 1kts
07-Aug-20 08:05 45.618091 -121.170696 141 222ft 7kts
07-Aug-20 08:06 45.616388 -121.168008 101 230ft 9kts
07-Aug-20 08:07 45.614587 -121.165833 143 234ft 8kts
07-Aug-20 08:08 45.612708 -121.163895 144 238ft 9kts
07-Aug-20 08:09 45.612203 -121.163230 107 239ft 0kts
07-Aug-20 08:10 45.612203 -121.163230 107 239ft 0kts
07-Aug-20 08:11 45.612202 -121.163225 108 239ft 0kts
07-Aug-20 08:12 45.617232 -121.167028 324 231ft 105kts
07-Aug-20 08:13 45.633511 -121.201025 238 1945ft 121kts
07-Aug-20 08:14 45.608744 -121.190508 134 3829ft 110kts
07-Aug-20 08:15 45.586129 -121.158107 112 5381ft 117kts
07-Aug-20 08:16 45.605702 -121.133693 10 6839ft 108kts
07-Aug-20 08:17 45.635767 -121.124385 9 8079ft 121kts
07-Aug-20 08:18 45.679222 -121.111255 10 8114ft 183kts
07-Aug-20 08:19 45.715776 -121.136814 271 8121ft 196kts
07-Aug-20 08:20 45.717021 -121.215929 274 8109ft 199kts
07-Aug-20 08:21 45.719150 -121.295783 274 8109ft 199kts
07-Aug-20 08:22 45.721300 -121.374745 274 8106ft 192kts
07-Aug-20 08:23 45.723296 -121.449406 275 8108ft 184kts
07-Aug-20 08:24 45.725176 -121.521344 275 8108ft 182kts
07-Aug-20 08:25 45.727037 -121.594374 275 8108ft 182kts
07-Aug-20 08:26 45.728692 -121.660931 274 8109ft 182kts
07-Aug-20 08:27 45.730471 -121.734247 274 7967ft 189kts
07-Aug-20 08:28 45.732236 -121.809164 275 7957ft 185kts
07-Aug-20 08:29 45.733932 -121.882984 275 7971ft 185kts
07-Aug-20 08:30 45.735591 -121.957234 275 7980ft 186kts
07-Aug-20 08:31 45.737171 -122.030160 275 7980ft 182kts
07-Aug-20 08:32 45.738698 -122.102749 275 7980ft 181kts
07-Aug-20 08:33 45.740177 -122.175239 275 7980ft 181kts
07-Aug-20 08:34 45.741629 -122.248689 275 7981ft 181kts
07-Aug-20 08:35 45.743012 -122.321023 275 7981ft 181kts
07-Aug-20 08:36 45.744348 -122.393252 275 7999ft 180kts
07-Aug-20 08:37 45.745640 -122.465538 275 7997ft 181kts
07-Aug-20 08:38 45.746821 -122.534695 275 7991ft 163kts
07-Aug-20 08:39 45.742325 -122.595658 221 7994ft 160kts
07-Aug-20 08:40 45.705885 -122.632675 217 7986ft 156kts
07-Aug-20 08:41 45.673478 -122.664768 216 7975ft 138kts
07-Aug-20 08:42 45.637919 -122.689291 204 7388ft 144kts
07-Aug-20 08:43 45.600657 -122.712519 203 6493ft 148kts
07-Aug-20 08:44 45.562346 -122.736261 203 5593ft 150kts
07-Aug-20 08:45 45.523646 -122.760168 203 4695ft 152kts
07-Aug-20 08:46 45.484720 -122.784172 203 3797ft 153kts
07-Aug-20 08:47 45.445938 -122.808053 203 3105ft 148kts
07-Aug-20 08:48 45.409505 -122.830448 203 3099ft 138kts
07-Aug-20 08:49 45.374856 -122.851997 205 3102ft 133kts
07-Aug-20 08:50 45.339582 -122.876349 205 2905ft 141kts
07-Aug-20 08:51 45.306164 -122.899639 212 2897ft 125kts
07-Aug-20 08:52 45.285410 -122.942909 234 2527ft 136kts
07-Aug-20 08:53 45.265505 -122.985904 239 2370ft 132kts
07-Aug-20 08:54 45.247303 -123.026121 238 1860ft 116kts
07-Aug-20 08:55 45.230153 -123.063868 238 1286ft 114kts
07-Aug-20 08:56 45.213553 -123.100579 238 696ft 108kts
07-Aug-20 08:57 45.197540 -123.135559 236 151ft 81kts
07-Aug-20 08:58 45.194899 -123.143097 20 145ft 11kts
07-Aug-20 08:59 45.195907 -123.141918 55 146ft 4kts
07-Aug-20 09:00 45.197054 -123.139403 57 148ft 2kts
07-Aug-20 09:01 45.198832 -123.138597 121 149ft 0kts
07-Aug-20 09:02 45.198832 -123.138596 120 149ft 0kts
07-Aug-20 09:03 45.198832 -123.138597 120 149ft 0kts
07-Aug-20 09:04 45.198832 -123.138597 120 149ft 0kts
07-Aug-20 09:05 45.198832 -123.138597 120 149ft 0kts
07-Aug-20 09:06 45.198832 -123.138597 120 149ft 0kts
07-Aug-20 09:07 45.198832 -123.138597 120 149ft 0kts

Navigation Log

Ident Type
Flight plan parsing failed, navigation log unavailable